Time;durP1;ratioP1;P1;durP2;ratioP2;P2;SDS_P1;SDS_P2;PMS_P1;PMS_P2;Temp;Humidity;BMP_temperature;BMP_pressure;BME280_temperature;BME280_humidity;BME280_pressure;Samples;Min_cycle;Max_cycle;Signal;HPM_P1;HPM_P2
2021/04/14 00:04:06;;;;;;;;;;;;;;;8.08;75.41;101302.55;1675375;85;20186;-64
2021/04/14 00:10:39;;;;;;;;;;;;;;;7.98;75.54;101292.31;1676655;86;20194;-64
2021/04/14 00:13:14;;;;;;;;;;;;;;;7.92;75.74;101285.34;1675085;86;20246;-64
2021/04/14 00:15:52;;;;;;;;;;;;;;;7.87;75.96;101281.71;1676547;86;20245;-63
2021/04/14 00:18:24;;;;;;;;;;;;;;;7.87;76.19;101277.80;1675112;86;20202;-64
2021/04/14 00:20:57;;;;;;;;;;;;;;;7.86;76.32;101273.51;1675110;85;20182;-64
2021/04/14 00:23:29;;;;;;;;;;;;;;;7.85;76.33;101278.37;1675276;86;20407;-64
2021/04/14 00:38:06;;;;;;;;;;;;;;;7.78;76.33;101255.38;1680427;85;20178;-64
2021/04/14 00:40:40;;;;;;;;;;;;;;;7.77;76.48;101245.86;1683950;85;20301;-64
2021/04/14 00:43:24;;;;;;;;;;;;;;;7.74;76.53;101240.37;1682747;85;20651;-66
2021/04/14 00:45:56;;;;;;;;;;;;;;;7.74;76.61;101239.56;1683684;85;20185;-64
2021/04/14 00:48:29;;;;;;;;;;;;;;;7.74;76.72;101243.47;1682649;85;20757;-64
2021/04/14 00:51:04;;;;;;;;;;;;;;;7.73;76.82;101237.88;1682384;85;20174;-64
2021/04/14 00:53:37;;;;;;;;;;;;;;;7.73;76.93;101233.95;1683013;85;20182;-64
2021/04/14 00:56:09;;;;;;;;;;;;;;;7.73;77.00;101234.80;1683985;85;20241;-65
2021/04/14 00:58:42;;;;;;;;;;;;;;;7.75;77.06;101224.27;1682723;85;20611;-65
2021/04/14 01:01:14;;;;;;;;;;;;;;;7.75;77.11;101218.59;1683667;85;20257;-65
2021/04/14 01:03:46;;;;;;;;;;;;;;;7.73;77.09;101213.11;1682836;85;20387;-64
2021/04/14 01:06:22;;;;;;;;;;;;;;;7.72;77.20;101206.20;1683473;85;20241;-64
2021/04/14 01:08:55;;;;;;;;;;;;;;;7.72;77.33;101200.53;1682887;85;20170;-64
2021/04/14 01:11:28;;;;;;;;;;;;;;;7.74;77.45;101192.64;1683845;85;20177;-63
2021/04/14 01:14:00;;;;;;;;;;;;;;;7.77;77.46;101189.81;1682869;85;20623;-63
2021/04/14 01:16:33;;;;;;;;;;;;;;;7.78;77.42;101179.31;1683721;85;20687;-63
2021/04/14 01:19:06;;;;;;;;;;;;;;;7.79;77.38;101180.13;1682779;85;20198;-63
2021/04/14 01:21:40;;;;;;;;;;;;;;;7.78;77.27;101174.10;1683774;85;20282;-63
2021/04/14 01:24:14;;;;;;;;;;;;;;;7.77;77.25;101173.72;1682544;85;20198;-63
2021/04/14 01:26:46;;;;;;;;;;;;;;;7.76;77.25;101174.64;1683917;85;20237;-62
2021/04/14 01:29:19;;;;;;;;;;;;;;;7.74;77.29;101165.27;1682490;85;20237;-63
2021/04/14 01:31:51;;;;;;;;;;;;;;;7.75;77.27;101165.16;1682185;85;20177;-63
2021/04/14 01:34:23;;;;;;;;;;;;;;;7.74;77.22;101160.88;1682246;85;20177;-63
2021/04/14 01:36:56;;;;;;;;;;;;;;;7.74;77.17;101154.84;1682179;85;20178;-63
2021/04/14 01:39:28;;;;;;;;;;;;;;;7.72;77.11;101143.66;1676545;85;20796;-63
2021/04/14 01:42:00;;;;;;;;;;;;;;;7.70;77.07;101139.85;1676769;86;20551;-64
2021/04/14 01:44:33;;;;;;;;;;;;;;;7.68;77.03;101135.67;1675072;85;20599;-63
2021/04/14 01:47:06;;;;;;;;;;;;;;;7.67;77.11;101137.43;1675121;85;20202;-62
2021/04/14 01:49:38;;;;;;;;;;;;;;;7.67;77.05;101132.67;1675392;86;20258;-62
2021/04/14 01:52:10;;;;;;;;;;;;;;;7.65;76.96;101131.48;1676469;86;20563;-62
2021/04/14 01:54:43;;;;;;;;;;;;;;;7.64;76.93;101135.50;1675303;86;20159;-62
2021/04/14 01:57:15;;;;;;;;;;;;;;;7.60;76.86;101136.14;1676749;86;20206;-62
2021/04/14 01:59:47;;;;;;;;;;;;;;;7.57;76.87;101135.52;1675671;86;20182;-62
2021/04/14 02:02:19;;;;;;;;;;;;;;;7.56;76.97;101135.13;1676203;86;20218;-63
2021/04/14 02:04:52;;;;;;;;;;;;;;;7.54;76.95;101148.72;1675382;86;20178;-63
2021/04/14 02:07:24;;;;;;;;;;;;;;;7.46;76.89;101151.34;1675338;86;20232;-64
2021/04/14 02:09:56;;;;;;;;;;;;;;;7.42;77.07;101154.23;1675310;86;20237;-63
2021/04/14 02:12:29;;;;;;;;;;;;;;;7.36;77.20;101152.83;1676666;86;20699;-64
2021/04/14 02:15:01;;;;;;;;;;;;;;;7.33;77.28;101154.80;1675636;86;20587;-64
2021/04/14 02:17:33;;;;;;;;;;;;;;;7.31;77.34;101160.08;1676518;86;20822;-62
2021/04/14 02:20:07;;;;;;;;;;;;;;;7.24;77.24;101154.88;1675473;86;20607;-62
2021/04/14 02:22:40;;;;;;;;;;;;;;;7.18;77.34;101152.66;1676543;86;20615;-63
2021/04/14 02:25:13;;;;;;;;;;;;;;;7.13;77.48;101154.70;1675331;86;20166;-64
2021/04/14 02:27:45;;;;;;;;;;;;;;;7.11;77.56;101153.95;1676757;86;20563;-62
2021/04/14 02:30:27;;;;;;;;;;;;;;;7.10;77.59;101146.22;1675318;86;20243;-63
2021/04/14 02:32:59;;;;;;;;;;;;;;;7.10;77.60;101146.22;1676740;86;20209;-62
2021/04/14 02:35:32;;;;;;;;;;;;;;;7.08;77.74;101145.02;1674808;86;20277;-62
2021/04/14 02:38:06;;;;;;;;;;;;;;;7.08;77.85;101148.08;1676532;86;20241;-62
2021/04/14 02:40:39;;;;;;;;;;;;;;;7.09;77.89;101149.77;1681434;85;20225;-62
2021/04/14 02:43:11;;;;;;;;;;;;;;;7.08;77.88;101153.29;1683784;85;20237;-63
2021/04/14 02:45:43;;;;;;;;;;;;;;;7.10;77.99;101156.63;1682716;85;20198;-62
2021/04/14 02:48:15;;;;;;;;;;;;;;;7.13;77.99;101154.70;1684085;85;20194;-62
2021/04/14 02:50:47;;;;;;;;;;;;;;;7.15;77.91;101155.44;1682345;85;20181;-62
2021/04/14 02:53:19;;;;;;;;;;;;;;;7.15;77.83;101145.48;1683708;85;20185;-63
2021/04/14 02:55:52;;;;;;;;;;;;;;;7.18;77.84;101153.11;1682477;85;20185;-60
2021/04/14 02:58:24;;;;;;;;;;;;;;;7.19;77.88;101155.61;1684126;85;20158;-61
2021/04/14 03:00:56;;;;;;;;;;;;;;;7.23;77.85;101157.12;1682419;85;20261;-61
2021/04/14 03:03:28;;;;;;;;;;;;;;;7.28;77.72;101146.42;1684162;85;20361;-61
2021/04/14 03:06:01;;;;;;;;;;;;;;;7.33;77.58;101145.19;1657906;85;20663;-61
2021/04/14 03:08:33;;;;;;;;;;;;;;;7.37;77.39;101145.39;1683906;85;20667;-61
2021/04/14 03:11:05;;;;;;;;;;;;;;;7.42;77.33;101142.50;1682584;85;20177;-60
2021/04/14 03:13:38;;;;;;;;;;;;;;;7.49;77.30;101138.59;1682272;85;20182;-60
2021/04/14 03:16:10;;;;;;;;;;;;;;;7.59;77.20;101139.70;1682419;85;20221;-61
2021/04/14 03:18:42;;;;;;;;;;;;;;;7.69;77.05;101142.08;1684233;85;20237;-62
2021/04/14 03:21:14;;;;;;;;;;;;;;;7.80;76.92;101141.41;1682708;85;20593;-64
2021/04/14 03:23:45;;;;;;;;;;;;;;;7.94;76.70;101138.30;1684158;85;20548;-60
2021/04/14 03:26:18;;;;;;;;;;;;;;;8.10;76.48;101138.98;1682091;85;20170;-60
2021/04/14 03:28:51;;;;;;;;;;;;;;;8.23;76.18;101127.77;1684024;85;20265;-62
2021/04/14 03:31:26;;;;;;;;;;;;;;;8.34;75.92;101120.09;1682592;85;20233;-61
2021/04/14 03:33:57;;;;;;;;;;;;;;;8.49;75.70;101114.71;1684193;85;20245;-61
2021/04/14 03:36:29;;;;;;;;;;;;;;;8.63;75.39;101122.45;1682762;85;20229;-61
2021/04/14 03:39:00;;;;;;;;;;;;;;;8.77;75.00;101135.41;1684083;85;20314;-62
2021/04/14 03:41:33;;;;;;;;;;;;;;;8.88;74.65;101140.39;1676397;84;20603;-62
2021/04/14 03:44:06;;;;;;;;;;;;;;;8.96;74.28;101140.22;1675187;86;20600;-62
2021/04/14 03:46:38;;;;;;;;;;;;;;;9.02;74.07;101132.45;1675184;86;20238;-62
2021/04/14 03:49:11;;;;;;;;;;;;;;;9.08;73.88;101132.86;1676821;86;20209;-61
2021/04/14 03:51:43;;;;;;;;;;;;;;;9.15;73.68;101121.51;1675425;86;20639;-61
2021/04/14 03:54:15;;;;;;;;;;;;;;;9.19;73.57;101110.77;1676573;86;20237;-61
2021/04/14 03:56:47;;;;;;;;;;;;;;;9.23;73.46;101114.83;1675060;86;20245;-61
2021/04/14 03:59:19;;;;;;;;;;;;;;;9.30;73.26;101126.52;1676400;86;20182;-61
2021/04/14 04:01:53;;;;;;;;;;;;;;;9.36;73.11;101137.03;1675292;86;20373;-61
2021/04/14 04:04:25;;;;;;;;;;;;;;;9.42;72.92;101138.73;1659499;86;20620;-62
2021/04/14 04:06:57;;;;;;;;;;;;;;;9.45;72.58;101124.63;1672807;86;20336;-62
2021/04/14 04:09:29;;;;;;;;;;;;;;;9.42;72.55;101126.97;1673919;86;20331;-62
2021/04/14 04:12:05;;;;;;;;;;;;;;;9.45;72.55;101132.46;1671322;86;20217;-63
2021/04/14 04:14:46;;;;;;;;;;;;;;;9.49;72.52;101120.38;1672399;86;20213;-64
2021/04/14 04:17:11;;;;;;;;;;;;;;;9.52;72.53;101110.64;1674940;85;20627;-64
2021/04/14 04:19:44;;;;;;;;;;;;;;;9.56;72.50;101120.77;1674683;85;20206;-63
2021/04/14 04:22:22;;;;;;;;;;;;;;;9.60;72.41;101124.02;1674486;86;20238;-63
2021/04/14 04:24:51;;;;;;;;;;;;;;;9.61;72.40;101116.05;1676386;86;20567;-62
2021/04/14 04:27:23;;;;;;;;;;;;;;;9.68;72.42;101115.13;1674103;85;20170;-63
2021/04/14 04:29:56;;;;;;;;;;;;;;;9.75;72.40;101109.36;1676479;86;20181;-63
2021/04/14 04:32:28;;;;;;;;;;;;;;;9.83;72.21;101110.12;1675025;86;20203;-63
2021/04/14 04:35:00;;;;;;;;;;;;;;;9.88;72.05;101107.55;1676632;86;20163;-62
2021/04/14 04:37:32;;;;;;;;;;;;;;;9.90;71.92;101088.66;1673291;86;20309;-63
2021/04/14 04:40:06;;;;;;;;;;;;;;;9.93;71.84;101085.82;1674149;86;20226;-62
2021/04/14 04:42:38;;;;;;;;;;;;;;;9.94;71.66;101084.86;1698799;83;20196;-64
2021/04/14 04:45:10;;;;;;;;;;;;;;;9.95;71.61;101085.23;1700373;83;20673;-63
2021/04/14 04:47:42;;;;;;;;;;;;;;;9.98;71.54;101095.95;1696759;84;20314;-60
2021/04/14 04:50:14;;;;;;;;;;;;;;;10.00;71.57;101107.97;1698287;84;20819;-61
2021/04/14 04:52:50;;;;;;;;;;;;;;;10.07;71.58;101097.88;1714365;82;20272;-61
2021/04/14 04:59:18;;;;;;;;;;;;;;;10.26;71.45;101081.69;1670150;86;20846;-62
2021/04/14 05:01:53;;;;;;;;;;;;;;;10.45;71.23;101090.68;1669527;86;20214;-64
2021/04/14 05:04:26;;;;;;;;;;;;;;;10.62;71.02;101094.17;1669982;86;20333;-65
2021/04/14 05:06:59;;;;;;;;;;;;;;;10.94;70.69;101099.55;1669182;86;20281;-66
2021/04/14 05:13:27;;;;;;;;;;;;;;;11.70;69.30;101072.61;1694987;84;20688;-68
2021/04/14 05:16:04;;;;;;;;;;;;;;;12.10;68.08;101067.94;1694991;84;20275;-66
2021/04/14 05:22:34;;;;;;;;;;;;;;;12.34;66.53;101070.33;1695775;84;20214;-67
2021/04/14 05:29:03;;;;;;;;;;;;;;;12.83;65.01;101067.02;1696669;84;20227;-66
2021/04/14 05:31:40;;;;;;;;;;;;;;;14.00;63.20;101058.83;1696524;84;20314;-66
2021/04/14 05:34:12;;;;;;;;;;;;;;;14.92;60.98;101068.72;1696860;84;20271;-72
2021/04/14 05:36:45;;;;;;;;;;;;;;;15.36;58.90;101079.82;1696201;84;20295;-66
2021/04/14 05:39:18;;;;;;;;;;;;;;;15.55;57.74;101086.83;1696830;84;20208;-71
2021/04/14 05:41:50;;;;;;;;;;;;;;;15.58;57.19;101079.94;1696400;84;20362;-63
2021/04/14 05:44:22;;;;;;;;;;;;;;;15.47;56.59;101066.48;1696559;84;20275;-66
2021/04/14 05:46:54;;;;;;;;;;;;;;;15.27;56.65;101056.97;1697024;83;20964;-70
2021/04/14 05:49:27;;;;;;;;;;;;;;;15.18;56.85;101060.48;1698492;83;20226;-70
2021/04/14 05:55:55;;;;;;;;;;;;;;;15.30;55.16;101071.67;1706669;84;20246;-60
2021/04/14 05:58:37;;;;;;;;;;;;;;;15.45;54.06;101059.17;1705051;84;20752;-63
2021/04/14 06:01:10;;;;;;;;;;;;;;;15.58;53.92;101065.91;1703963;84;20450;-63
2021/04/14 06:03:43;;;;;;;;;;;;;;;15.83;53.39;101037.00;1702518;84;20187;-68
2021/04/14 06:06:15;;;;;;;;;;;;;;;16.12;52.22;101035.44;1704634;84;20271;-70
2021/04/14 06:08:47;;;;;;;;;;;;;;;16.40;50.46;101027.72;1702344;84;20310;-70
2021/04/14 06:11:19;;;;;;;;;;;;;;;16.97;49.14;101026.73;1703865;84;20302;-65
2021/04/14 06:17:40;;;;;;;;;;;;;;;17.78;45.24;101030.00;1731431;83;20299;-71
2021/04/14 06:20:16;;;;;;;;;;;;;;;18.74;44.23;101029.63;1732425;83;20409;-67
2021/04/14 06:22:49;;;;;;;;;;;;;;;19.59;42.67;101029.27;1706542;83;20221;-70
2021/04/14 06:25:22;;;;;;;;;;;;;;;19.88;40.86;101023.61;1733655;82;20307;-65
2021/04/14 06:30:33;;;;;;;;;;;;;;;19.81;40.40;101018.67;1733172;82;20727;-72
2021/04/14 06:33:08;;;;;;;;;;;;;;;19.76;40.00;101025.52;1734601;82;20235;-72
2021/04/14 06:35:40;;;;;;;;;;;;;;;19.51;40.06;101035.98;1734982;82;20260;-70
2021/04/14 06:38:16;;;;;;;;;;;;;;;19.29;40.13;101034.91;1733731;82;20225;-66
2021/04/14 06:41:06;;;;;;;;;;;;;;;19.07;40.35;101029.02;1733115;82;20711;-69
2021/04/14 06:43:51;;;;;;;;;;;;;;;18.91;40.58;101020.64;1732464;82;20315;-72
2021/04/14 06:46:12;;;;;;;;;;;;;;;18.81;41.00;101016.02;1731119;82;20243;-63
2021/04/14 06:49:10;;;;;;;;;;;;;;;18.81;41.14;101012.04;1733631;82;20321;-70
2021/04/14 06:52:01;;;;;;;;;;;;;;;18.86;41.26;101007.05;1731651;82;20297;-74
2021/04/14 06:54:50;;;;;;;;;;;;;;;19.04;40.49;101004.98;1729022;83;20304;-72
2021/04/14 06:57:23;;;;;;;;;;;;;;;19.20;39.83;101013.38;1729339;83;20276;-73
2021/04/14 07:00:17;;;;;;;;;;;;;;;19.29;39.01;101013.17;1728170;83;20272;-71
2021/04/14 07:02:59;;;;;;;;;;;;;;;19.44;38.59;101008.78;1729548;83;20312;-75
2021/04/14 07:05:46;;;;;;;;;;;;;;;19.57;37.68;101008.70;1728047;82;20328;-74
2021/04/14 07:08:21;;;;;;;;;;;;;;;19.65;37.25;101008.17;1728685;83;20835;-70
2021/04/14 07:10:55;;;;;;;;;;;;;;;19.65;37.14;101006.84;1710899;83;20287;-73
2021/04/14 07:13:28;;;;;;;;;;;;;;;19.74;37.38;100999.63;1698194;84;20227;-65
2021/04/14 07:16:21;;;;;;;;;;;;;;;20.15;36.58;100997.81;1698642;84;20297;-70
2021/04/14 07:19:00;;;;;;;;;;;;;;;21.05;35.21;100995.88;1693635;84;20706;-70
2021/04/14 07:21:36;;;;;;;;;;;;;;;22.48;33.02;100988.97;1694706;84;20322;-69
2021/04/14 07:24:32;;;;;;;;;;;;;;;23.67;30.92;100993.83;1683077;84;20214;-67
2021/04/14 07:27:42;;;;;;;;;;;;;;;24.44;28.51;100987.39;1697395;84;20402;-71
2021/04/14 07:30:17;;;;;;;;;;;;;;;24.89;27.77;100986.98;1697819;84;20275;-70
2021/04/14 07:33:13;;;;;;;;;;;;;;;25.58;26.80;100995.67;1699061;84;20334;-70
2021/04/14 07:35:51;;;;;;;;;;;;;;;25.87;26.27;100990.49;1698876;84;20204;-69
2021/04/14 07:42:24;;;;;;;;;;;;;;;26.35;25.48;100971.94;1706706;84;20230;-61
2021/04/14 07:45:22;;;;;;;;;;;;;;;27.26;24.69;100959.31;1705665;84;20306;-72
2021/04/14 07:47:58;;;;;;;;;;;;;;;28.06;23.93;100950.89;1697526;84;20211;-71
2021/04/14 07:50:35;;;;;;;;;;;;;;;28.85;22.75;100947.55;1697195;84;20340;-62
2021/04/14 07:53:23;;;;;;;;;;;;;;;29.40;22.31;100947.27;1699169;83;20271;-63
2021/04/14 07:56:22;;;;;;;;;;;;;;;29.99;21.60;100937.25;1702245;84;20411;-61
2021/04/14 07:59:07;;;;;;;;;;;;;;;30.59;21.10;100927.03;1702036;84;20394;-66
2021/04/14 08:01:51;;;;;;;;;;;;;;;31.19;20.24;100924.23;1703884;84;20420;-66
2021/04/14 08:04:30;;;;;;;;;;;;;;;31.30;19.72;100920.02;1703445;84;20211;-63
2021/04/14 08:07:20;;;;;;;;;;;;;;;31.47;18.83;100917.23;1703268;84;20828;-69
2021/04/14 08:10:00;;;;;;;;;;;;;;;31.55;18.92;100905.91;1702616;84;20300;-71
2021/04/14 08:12:42;;;;;;;;;;;;;;;31.34;18.64;100900.02;1702360;84;20215;-70
2021/04/14 08:15:17;;;;;;;;;;;;;;;31.17;18.49;100894.72;1687819;84;20676;-63
2021/04/14 08:17:51;;;;;;;;;;;;;;;31.16;18.56;100889.05;1703852;84;20223;-70
2021/04/14 08:20:27;;;;;;;;;;;;;;;31.24;18.03;100882.33;1702351;84;20396;-72
2021/04/14 08:23:15;;;;;;;;;;;;;;;31.16;17.66;100877.41;1701945;84;20227;-69
2021/04/14 08:25:52;;;;;;;;;;;;;;;30.99;17.49;100876.16;1702720;84;20816;-66
2021/04/14 08:28:52;;;;;;;;;;;;;;;30.66;17.39;100870.91;1703825;84;20279;-69
2021/04/14 08:32:33;;;;;;;;;;;;;;;29.97;17.76;100870.51;1701988;84;20805;-66
2021/04/14 08:34:27;;;;;;;;;;;;;;;28.90;18.67;100860.05;1686174;84;20401;-70
2021/04/14 08:37:14;;;;;;;;;;;;;;;28.03;19.17;100853.41;1703991;84;20297;-72
2021/04/14 08:40:04;;;;;;;;;;;;;;;27.45;19.25;100867.84;1702993;84;20703;-70
2021/04/14 08:42:39;;;;;;;;;;;;;;;26.69;18.33;100851.02;1703951;84;20242;-68
2021/04/14 08:45:20;;;;;;;;;;;;;;;26.05;18.74;100855.58;1703433;84;20338;-66
2021/04/14 08:47:56;;;;;;;;;;;;;;;25.62;18.65;100852.89;1703709;84;20306;-66
2021/04/14 08:50:31;;;;;;;;;;;;;;;25.09;19.04;100832.86;1702636;84;20387;-62
2021/04/14 08:53:05;;;;;;;;;;;;;;;24.84;19.36;100835.47;1703830;84;20434;-69
2021/04/14 08:55:37;;;;;;;;;;;;;;;24.69;18.59;100837.61;1698425;83;20777;-65
2021/04/14 08:58:09;;;;;;;;;;;;;;;24.48;18.25;100834.69;1698887;84;20736;-62
2021/04/14 09:04:38;;;;;;;;;;;;;;;24.59;18.19;100828.70;1703884;84;20247;-63
2021/04/14 09:07:10;;;;;;;;;;;;;;;25.10;18.47;100825.13;1697257;84;20730;-65
2021/04/14 09:09:46;;;;;;;;;;;;;;;25.26;17.79;100817.38;1698283;84;20286;-61
2021/04/14 09:12:19;;;;;;;;;;;;;;;24.98;17.79;100835.69;1698890;84;20227;-63
2021/04/14 09:14:56;;;;;;;;;;;;;;;24.46;17.85;100836.77;1697053;84;20258;-63
2021/04/14 09:17:28;;;;;;;;;;;;;;;24.00;18.20;100839.55;1698750;84;20281;-64
2021/04/14 09:20:09;;;;;;;;;;;;;;;23.49;18.43;100821.22;1697485;84;20212;-66
2021/04/14 09:22:42;;;;;;;;;;;;;;;23.10;18.44;100827.33;1697331;84;20325;-66
2021/04/14 09:25:20;;;;;;;;;;;;;;;22.76;19.18;100835.45;1698926;84;20805;-64
2021/04/14 09:27:52;;;;;;;;;;;;;;;22.52;19.35;100830.65;1698892;84;20286;-67
2021/04/14 09:30:31;;;;;;;;;;;;;;;22.23;19.26;100840.26;1697436;84;20686;-69
2021/04/14 09:33:10;;;;;;;;;;;;;;;21.80;19.77;100827.56;1698917;84;20215;-61
2021/04/14 09:35:55;;;;;;;;;;;;;;;21.40;20.09;100853.88;1690589;84;20251;-67
2021/04/14 09:38:39;;;;;;;;;;;;;;;21.07;20.65;100823.47;1695581;84;20687;-67
2021/04/14 09:41:25;;;;;;;;;;;;;;;20.79;20.92;100819.87;1697815;84;20247;-68
2021/04/14 09:44:01;;;;;;;;;;;;;;;20.58;21.22;100817.18;1696725;84;20283;-67
2021/04/14 09:50:32;;;;;;;;;;;;;;;20.34;21.70;100820.98;1699353;84;20215;-68
2021/04/14 09:53:17;;;;;;;;;;;;;;;20.16;22.21;100816.51;1697355;84;20214;-62
2021/04/14 09:55:55;;;;;;;;;;;;;;;20.10;21.75;100829.22;1698606;84;20218;-64
2021/04/14 09:58:36;;;;;;;;;;;;;;;20.02;21.91;100829.30;1697733;83;20219;-66
2021/04/14 10:08:35;;;;;;;;;;;;;;;19.81;22.53;100840.66;1678135;85;20724;-67
2021/04/14 10:11:07;;;;;;;;;;;;;;;19.67;22.58;100852.59;1674292;85;20667;-66
2021/04/14 10:17:35;;;;;;;;;;;;;;;19.46;22.60;100836.02;1680708;84;20217;-72
2021/04/14 10:20:18;;;;;;;;;;;;;;;19.36;23.17;100834.94;1735934;82;20351;-65
2021/04/14 10:22:51;;;;;;;;;;;;;;;19.36;23.25;100838.92;1709679;83;20840;-68
2021/04/14 10:25:31;;;;;;;;;;;;;;;19.32;22.55;100821.64;1729562;83;20394;-69
2021/04/14 10:28:13;;;;;;;;;;;;;;;19.26;22.87;100818.88;1728140;83;20289;-72
2021/04/14 10:30:48;;;;;;;;;;;;;;;19.26;23.12;100813.57;1728644;83;20282;-72
2021/04/14 10:33:22;;;;;;;;;;;;;;;19.29;22.85;100836.63;1725269;83;20237;-68
2021/04/14 10:35:54;;;;;;;;;;;;;;;19.34;22.85;100825.47;1729387;83;20285;-73
2021/04/14 10:38:33;;;;;;;;;;;;;;;19.44;22.94;100828.70;1727805;83;20277;-71
2021/04/14 10:41:21;;;;;;;;;;;;;;;19.60;23.22;100827.75;1728574;83;20222;-73
2021/04/14 10:43:53;;;;;;;;;;;;;;;19.80;22.71;100835.53;1735219;82;20354;-71
2021/04/14 10:50:24;;;;;;;;;;;;;;;20.10;22.69;100811.94;1729202;83;20293;-67
2021/04/14 10:53:10;;;;;;;;;;;;;;;20.41;22.19;100811.25;1728344;83;20270;-67
2021/04/14 10:55:46;;;;;;;;;;;;;;;20.63;22.02;100818.28;1729339;83;20289;-66
2021/04/14 10:58:21;;;;;;;;;;;;;;;20.85;21.79;100785.84;1728035;82;20686;-66
2021/04/14 11:00:55;;;;;;;;;;;;;;;20.95;22.03;100785.02;1697735;84;20298;-70
2021/04/14 11:03:27;;;;;;;;;;;;;;;21.02;22.37;100767.77;1722489;83;20836;-67
2021/04/14 11:06:02;;;;;;;;;;;;;;;21.10;22.07;100779.16;1729233;83;20332;-73
2021/04/14 11:08:35;;;;;;;;;;;;;;;21.08;22.02;100767.05;1727806;83;20352;-66
2021/04/14 11:11:09;;;;;;;;;;;;;;;21.00;21.74;100773.80;1728695;83;20316;-71
2021/04/14 11:13:42;;;;;;;;;;;;;;;20.91;22.10;100761.14;1728105;83;20266;-69
2021/04/14 11:16:15;;;;;;;;;;;;;;;20.90;22.32;100766.13;1727762;82;20222;-69
2021/04/14 11:18:47;;;;;;;;;;;;;;;20.83;22.42;100778.05;1728177;83;20358;-68
2021/04/14 11:21:29;;;;;;;;;;;;;;;20.79;22.70;100745.36;1698109;84;20396;-71
2021/04/14 11:24:04;;;;;;;;;;;;;;;20.83;23.13;100742.13;1695193;84;20295;-67
2021/04/14 11:26:39;;;;;;;;;;;;;;;20.95;22.96;100737.61;1717644;83;20277;-71
2021/04/14 11:29:14;;;;;;;;;;;;;;;20.97;23.52;100748.92;1721890;83;20300;-75
2021/04/14 11:31:49;;;;;;;;;;;;;;;21.04;23.95;100739.15;1728537;83;20190;-67
2021/04/14 11:34:24;;;;;;;;;;;;;;;21.09;23.88;100722.92;1728004;83;20300;-65
2021/04/14 11:37:03;;;;;;;;;;;;;;;21.09;23.86;100736.77;1729416;83;20307;-70
2021/04/14 11:39:54;;;;;;;;;;;;;;;21.06;23.83;100730.48;1729639;83;20408;-70
2021/04/14 11:42:29;;;;;;;;;;;;;;;21.09;24.94;100717.60;1726859;82;20297;-65
2021/04/14 11:45:02;;;;;;;;;;;;;;;21.23;26.26;100718.02;1729499;83;20399;-71
2021/04/14 11:47:36;;;;;;;;;;;;;;;21.39;26.86;100712.92;1729217;83;20792;-68
2021/04/14 11:50:14;;;;;;;;;;;;;;;21.50;26.51;100727.02;1729508;83;20386;-68
2021/04/14 11:52:59;;;;;;;;;;;;;;;21.39;26.83;100720.41;1728169;83;20206;-68
2021/04/14 11:55:36;;;;;;;;;;;;;;;21.25;27.43;100708.52;1729526;83;20394;-70
2021/04/14 11:58:22;;;;;;;;;;;;;;;21.23;28.56;100715.88;1728939;83;20277;-64
2021/04/14 12:00:54;;;;;;;;;;;;;;;21.21;29.08;100704.58;1721069;83;20410;-60
2021/04/14 12:03:37;;;;;;;;;;;;;;;21.10;29.39;100703.79;1728878;83;20390;-69
2021/04/14 12:06:09;;;;;;;;;;;;;;;20.97;29.46;100695.69;1729289;83;20289;-64
2021/04/14 12:08:42;;;;;;;;;;;;;;;20.81;29.49;100706.08;1728955;83;20373;-65
2021/04/14 12:11:24;;;;;;;;;;;;;;;20.64;29.63;100721.47;1729458;83;20293;-67
2021/04/14 12:17:51;;;;;;;;;;;;;;;20.49;29.52;100698.09;1729567;83;20312;-62
2021/04/14 12:20:24;;;;;;;;;;;;;;;20.45;29.35;100683.53;1727612;82;20691;-64
2021/04/14 12:22:58;;;;;;;;;;;;;;;20.48;29.39;100675.68;1728250;83;20214;-67
2021/04/14 12:25:30;;;;;;;;;;;;;;;20.51;29.04;100679.30;1729780;83;20369;-65
2021/04/14 12:28:04;;;;;;;;;;;;;;;20.51;29.04;100695.26;1729365;83;20289;-71
2021/04/14 12:30:37;;;;;;;;;;;;;;;20.48;28.85;100700.95;1729481;83;20375;-73
2021/04/14 12:33:11;;;;;;;;;;;;;;;20.45;29.23;100683.53;1728317;83;20211;-72
2021/04/14 12:35:43;;;;;;;;;;;;;;;20.44;29.46;100671.27;1729383;83;20357;-69
2021/04/14 12:38:15;;;;;;;;;;;;;;;20.41;29.76;100664.98;1729428;83;20198;-61
2021/04/14 12:40:47;;;;;;;;;;;;;;;20.45;30.02;100682.70;1729411;83;20281;-67
2021/04/14 12:43:21;;;;;;;;;;;;;;;20.48;29.46;100672.52;1727660;82;20226;-62
2021/04/14 12:45:53;;;;;;;;;;;;;;;20.47;29.55;100668.20;1729152;83;20355;-63
2021/04/14 12:48:28;;;;;;;;;;;;;;;20.44;29.92;100660.63;1729199;83;20693;-74
2021/04/14 12:51:06;;;;;;;;;;;;;;;20.44;30.23;100665.95;1729233;83;20190;-69
2021/04/14 12:53:42;;;;;;;;;;;;;;;20.41;29.95;100663.66;1728183;83;20159;-67
2021/04/14 12:56:29;;;;;;;;;;;;;;;20.33;30.10;100662.44;1729002;83;20339;-65
2021/04/14 12:59:09;;;;;;;;;;;;;;;20.28;30.46;100657.36;1736729;82;20285;-65
2021/04/14 13:01:42;;;;;;;;;;;;;;;20.23;30.59;100661.12;1730130;81;20324;-67
2021/04/14 13:04:17;;;;;;;;;;;;;;;20.18;30.43;100683.72;1729602;82;20730;-64
2021/04/14 13:07:02;;;;;;;;;;;;;;;20.09;30.44;100658.77;1728751;83;20395;-62
2021/04/14 13:09:37;;;;;;;;;;;;;;;20.01;30.67;100692.13;1728825;83;20277;-69
2021/04/14 13:16:08;;;;;;;;;;;;;;;19.88;30.79;100667.53;1727779;83;20218;-73
2021/04/14 13:18:40;;;;;;;;;;;;;;;19.79;30.50;100679.28;1729469;83;20237;-67
2021/04/14 13:21:25;;;;;;;;;;;;;;;19.72;30.58;100644.34;1727901;82;20687;-75
2021/04/14 13:24:11;;;;;;;;;;;;;;;19.66;30.59;100640.58;1728236;83;20385;-64
2021/04/14 13:31:16;;;;;;;;;;;;;;;19.60;31.00;100668.39;1728268;83;20213;-71
2021/04/14 13:33:55;;;;;;;;;;;;;;;19.55;31.13;100658.81;1728999;83;20300;-74
2021/04/14 13:36:31;;;;;;;;;;;;;;;19.52;31.24;100672.45;1727758;82;20327;-67
2021/04/14 13:39:10;;;;;;;;;;;;;;;19.51;31.12;100692.91;1727562;82;20341;-68
2021/04/14 13:49:35;;;;;;;;;;;;;;;19.62;31.32;100637.16;1729411;83;20281;-70
2021/04/14 13:52:10;;;;;;;;;;;;;;;19.70;31.23;100642.38;1727807;83;20233;-71
2021/04/14 13:54:42;;;;;;;;;;;;;;;19.72;31.17;100652.31;1708475;82;20234;-69
2021/04/14 13:57:27;;;;;;;;;;;;;;;19.72;31.32;100640.35;1712980;83;20409;-69
2021/04/14 14:00:04;;;;;;;;;;;;;;;19.71;31.22;100630.72;1711478;82;20282;-69
2021/04/14 14:02:39;;;;;;;;;;;;;;;19.70;31.52;100630.42;1735836;82;20197;-69
2021/04/14 14:05:17;;;;;;;;;;;;;;;19.71;31.69;100630.22;1715155;82;20303;-71
2021/04/14 14:08:02;;;;;;;;;;;;;;;19.72;31.79;100645.17;1677523;85;20650;-72
2021/04/14 14:10:57;;;;;;;;;;;;;;;19.70;31.88;100642.38;1655989;85;20219;-69
2021/04/14 14:13:33;;;;;;;;;;;;;;;19.65;31.96;100638.13;1678022;85;20195;-69
2021/04/14 14:16:17;;;;;;;;;;;;;;;19.59;32.00;100634.36;1677629;85;20211;-71
2021/04/14 14:18:59;;;;;;;;;;;;;;;19.53;32.08;100655.03;1678532;85;20335;-72
2021/04/14 14:21:33;;;;;;;;;;;;;;;19.46;32.36;100630.22;1676970;85;20708;-70
2021/04/14 14:24:07;;;;;;;;;;;;;;;19.42;32.50;100631.08;1726503;82;20206;-70
2021/04/14 14:26:39;;;;;;;;;;;;;;;19.41;32.57;100614.84;1735214;82;20315;-70
2021/04/14 14:29:13;;;;;;;;;;;;;;;19.38;32.65;100617.86;1736426;82;20246;-70
2021/04/14 14:31:45;;;;;;;;;;;;;;;19.35;32.73;100617.36;1735161;82;20659;-73
2021/04/14 14:34:17;;;;;;;;;;;;;;;19.29;32.82;100625.58;1735573;82;20206;-73
2021/04/14 14:40:47;;;;;;;;;;;;;;;19.19;33.15;100614.89;1732339;82;20235;-73
2021/04/14 14:43:29;;;;;;;;;;;;;;;19.13;33.35;100632.36;1724543;83;20806;-70
2021/04/14 14:46:10;;;;;;;;;;;;;;;19.11;33.44;100617.13;1730368;83;20322;-73
2021/04/14 14:48:43;;;;;;;;;;;;;;;19.05;33.55;100616.55;1730849;83;20663;-74
2021/04/14 14:51:18;;;;;;;;;;;;;;;18.99;33.65;100615.92;1730077;83;20206;-72
2021/04/14 14:53:54;;;;;;;;;;;;;;;18.91;33.87;100613.37;1730386;83;20704;-73
2021/04/14 14:56:38;;;;;;;;;;;;;;;18.84;34.13;100615.91;1730105;83;20274;-73
2021/04/14 14:59:20;;;;;;;;;;;;;;;18.79;34.28;100612.16;1729143;82;20239;-73
2021/04/14 15:01:52;;;;;;;;;;;;;;;18.72;34.41;100623.97;1712024;82;20339;-73